Time;durP1;ratioP1;P1;durP2;ratioP2;P2;SDS_P1;SDS_P2;PMS_P1;PMS_P2;Temp;Humidity;BMP_temperature;BMP_pressure;BME280_temperature;BME280_humidity;BME280_pressure;Samples;Min_cycle;Max_cycle;Signal;HPM_P1;HPM_P2
2023/12/12 00:01:36;;;;;;;47.75;29.23;;;;;;;6.66;75.63;100516.19;5049871;28;20559;-80
2023/12/12 00:04:01;;;;;;;58.17;32.83;;;;;;;6.60;75.52;100504.09;5054007;28;20021;-80
2023/12/12 00:06:29;;;;;;;54.25;30.73;;;;;;;6.68;75.52;100524.94;5057769;28;20086;-80
2023/12/12 00:08:55;;;;;;;53.90;33.30;;;;;;;6.55;75.74;100523.09;5056369;28;20424;-80
2023/12/12 00:11:21;;;;;;;65.93;35.83;;;;;;;6.39;75.31;100538.41;5053805;28;20104;-80
2023/12/12 00:13:46;;;;;;;61.47;34.55;;;;;;;6.55;75.68;100554.28;5030496;28;20101;-79
2023/12/12 00:16:12;;;;;;;55.42;32.28;;;;;;;6.51;75.90;100542.94;5049284;28;20100;-80
2023/12/12 00:18:38;;;;;;;58.60;32.30;;;;;;;6.24;76.13;100517.22;5049426;28;20094;-80
2023/12/12 00:21:04;;;;;;;62.83;34.58;;;;;;;6.20;76.44;100515.69;5049702;28;20110;-80
2023/12/12 00:23:30;;;;;;;59.83;35.15;;;;;;;6.33;76.47;100528.13;5049325;28;20063;-80
2023/12/12 00:25:55;;;;;;;58.70;34.60;;;;;;;6.55;76.74;100557.84;5050793;28;20069;-78
2023/12/12 00:28:21;;;;;;;64.55;34.60;;;;;;;6.41;76.94;100525.84;5057233;28;20036;-79
2023/12/12 00:30:47;;;;;;;67.93;35.97;;;;;;;6.50;76.20;100535.91;5048327;28;20029;-81
2023/12/12 00:33:12;;;;;;;68.50;40.65;;;;;;;6.59;76.20;100558.50;5049586;28;20444;-79
2023/12/12 00:35:38;;;;;;;74.57;40.22;;;;;;;6.58;77.05;100543.41;5049297;28;20039;-81
2023/12/12 00:38:04;;;;;;;74.97;40.08;;;;;;;6.63;77.36;100543.13;5049527;28;20071;-80
2023/12/12 00:40:29;;;;;;;59.33;36.08;;;;;;;6.61;77.19;100542.34;5047704;28;20131;-79
2023/12/12 00:42:55;;;;;;;60.38;36.65;;;;;;;6.68;76.54;100549.88;5049226;28;20085;-78
2023/12/12 00:45:20;;;;;;;67.32;37.97;;;;;;;6.70;76.29;100536.38;5049411;28;20049;-80
2023/12/12 00:47:46;;;;;;;59.03;34.47;;;;;;;6.73;75.95;100544.22;5049689;28;20098;-79
2023/12/12 00:50:11;;;;;;;71.60;37.83;;;;;;;6.73;75.84;100552.25;5049626;28;20068;-80
2023/12/12 00:52:37;;;;;;;77.50;39.28;;;;;;;6.73;75.87;100538.88;5049131;28;20025;-80
2023/12/12 00:55:02;;;;;;;74.95;39.13;;;;;;;6.77;75.99;100541.22;5058247;28;20029;-79
2023/12/12 00:57:28;;;;;;;76.65;38.92;;;;;;;6.70;75.47;100523.88;5064592;28;20021;-79
2023/12/12 00:59:54;;;;;;;60.50;36.72;;;;;;;6.72;75.18;100534.50;5052409;28;20090;-79
2023/12/12 01:02:23;;;;;;;64.60;35.80;;;;;;;6.69;75.30;100545.38;5048980;28;20025;-79
2023/12/12 01:04:49;;;;;;;70.07;33.75;;;;;;;6.71;75.60;100546.13;5048961;28;20020;-79
2023/12/12 01:07:15;;;;;;;64.05;32.78;;;;;;;6.71;75.51;100543.44;5048443;28;20116;-80
2023/12/12 01:09:40;;;;;;;56.55;33.22;;;;;;;6.51;76.00;100513.56;5048802;28;20033;-80
2023/12/12 01:12:06;;;;;;;57.65;33.65;;;;;;;6.66;76.22;100529.56;5048543;28;20574;-79
2023/12/12 01:14:31;;;;;;;58.15;33.42;;;;;;;6.75;76.65;100545.84;5048802;28;20111;-80
2023/12/12 01:16:57;;;;;;;55.00;32.58;;;;;;;6.70;77.03;100541.72;5048690;28;20020;-79
2023/12/12 01:19:23;;;;;;;58.83;31.77;;;;;;;6.80;77.02;100548.19;5048044;28;20104;-81
2023/12/12 01:21:48;;;;;;;53.47;32.50;;;;;;;6.76;76.72;100541.34;5049007;28;20132;-81
2023/12/12 01:24:14;;;;;;;55.38;30.70;;;;;;;6.78;77.12;100531.41;5048293;28;20386;-80
2023/12/12 01:26:40;;;;;;;49.65;30.75;;;;;;;6.86;77.07;100513.03;5048241;28;20106;-80
2023/12/12 01:29:06;;;;;;;51.60;29.98;;;;;;;6.98;77.29;100517.53;5048398;28;20798;-81
2023/12/12 01:31:31;;;;;;;55.53;31.08;;;;;;;6.99;76.89;100511.22;5047942;28;20025;-79
2023/12/12 01:33:57;;;;;;;52.25;31.73;;;;;;;7.01;76.53;100514.66;5048115;28;20066;-80
2023/12/12 01:36:22;;;;;;;58.13;33.95;;;;;;;6.96;76.16;100508.78;5047920;28;20082;-80
2023/12/12 01:38:48;;;;;;;67.22;34.30;;;;;;;6.99;75.76;100521.94;5047363;28;20025;-80
2023/12/12 01:41:14;;;;;;;64.18;37.60;;;;;;;6.89;76.35;100531.53;5048597;28;20033;-79
2023/12/12 01:43:39;;;;;;;67.25;37.90;;;;;;;6.80;76.31;100494.72;5048444;28;20024;-81
2023/12/12 01:46:06;;;;;;;68.70;38.83;;;;;;;6.98;76.39;100498.81;5061435;28;20036;-79
2023/12/12 01:48:33;;;;;;;66.35;39.55;;;;;;;7.03;76.08;100494.03;5064087;28;20049;-80
2023/12/12 01:50:59;;;;;;;69.03;40.88;;;;;;;6.74;76.10;100468.41;5058840;28;20032;-81
2023/12/12 01:53:30;;;;;;;70.30;39.25;;;;;;;6.86;75.87;100473.78;5060982;28;20060;-79
2023/12/12 01:56:01;;;;;;;66.22;37.53;;;;;;;6.84;76.12;100474.84;5048665;28;20040;-80
2023/12/12 01:58:27;;;;;;;69.63;38.60;;;;;;;6.74;76.03;100460.41;5062491;28;20045;-79
2023/12/12 02:00:53;;;;;;;64.70;37.17;;;;;;;6.78;76.16;100502.00;5047850;28;20255;-80
2023/12/12 02:03:20;;;;;;;69.57;39.65;;;;;;;6.76;76.21;100501.25;5045302;28;20472;-80
2023/12/12 02:05:47;;;;;;;64.05;37.03;;;;;;;6.31;76.35;100428.56;5048075;28;20028;-80
2023/12/12 02:08:13;;;;;;;73.93;39.90;;;;;;;6.76;76.91;100501.25;5047644;28;20040;-80
2023/12/12 02:10:39;;;;;;;72.18;39.28;;;;;;;6.74;76.50;100505.84;5048130;28;20047;-79
2023/12/12 02:13:05;;;;;;;61.78;38.47;;;;;;;6.71;76.80;100506.03;5047643;28;20017;-79
2023/12/12 02:15:31;;;;;;;62.45;36.63;;;;;;;6.52;76.41;100490.38;5047819;28;20039;-78
2023/12/12 02:17:56;;;;;;;67.32;37.13;;;;;;;6.58;76.50;100498.84;5049871;28;20040;-78
2023/12/12 02:20:22;;;;;;;67.70;38.28;;;;;;;6.60;76.55;100506.78;5051127;28;20037;-79
2023/12/12 02:22:47;;;;;;;60.53;37.08;;;;;;;6.42;76.39;100479.44;5051406;28;20033;-78
2023/12/12 02:25:18;;;;;;;64.78;36.55;;;;;;;6.59;76.47;100507.72;5051000;28;20041;-79
2023/12/12 02:27:44;;;;;;;60.50;37.25;;;;;;;6.57;76.81;100505.13;5051907;28;20682;-80
2023/12/12 02:30:12;;;;;;;65.90;40.10;;;;;;;6.61;76.66;100516.47;5051356;28;20029;-79
2023/12/12 02:32:37;;;;;;;71.05;39.88;;;;;;;6.45;76.37;100491.78;5051470;28;20024;-79
2023/12/12 02:35:03;;;;;;;70.95;39.53;;;;;;;6.50;76.64;100501.19;5051560;28;20029;-79
2023/12/12 02:37:29;;;;;;;61.95;35.70;;;;;;;6.52;76.85;100506.41;5062035;28;20032;-80
2023/12/12 02:39:54;;;;;;;65.85;37.13;;;;;;;6.50;77.13;100514.53;5064080;28;20493;-80
2023/12/12 02:42:20;;;;;;;67.78;38.90;;;;;;;6.41;77.02;100508.94;5054840;28;20078;-79
2023/12/12 02:44:45;;;;;;;72.80;36.90;;;;;;;6.48;77.00;100508.41;5052587;28;20481;-79
2023/12/12 02:47:11;;;;;;;65.30;38.38;;;;;;;6.34;77.19;100487.13;5051003;28;20024;-79
2023/12/12 02:49:36;;;;;;;63.35;36.80;;;;;;;6.51;76.95;100516.22;5050893;28;20033;-78
2023/12/12 02:52:02;;;;;;;65.75;36.85;;;;;;;6.32;76.56;100480.19;5050801;28;20031;-79
2023/12/12 02:54:27;;;;;;;64.10;35.45;;;;;;;6.41;76.33;100504.47;5050958;28;20463;-80
2023/12/12 02:56:54;;;;;;;69.57;37.20;;;;;;;6.50;76.29;100525.22;5050731;28;20052;-79
2023/12/12 02:59:19;;;;;;;63.00;34.85;;;;;;;6.48;76.52;100519.09;5050580;28;20030;-80
2023/12/12 03:01:48;;;;;;;68.00;38.03;;;;;;;6.43;77.25;100523.91;5050927;28;20033;-80
2023/12/12 03:04:13;;;;;;;73.45;40.08;;;;;;;6.31;77.38;100498.00;5050438;28;20492;-79
2023/12/12 03:06:38;;;;;;;76.20;45.33;;;;;;;6.32;78.24;100525.59;5049774;28;20039;-79
2023/12/12 03:09:04;;;;;;;75.57;45.50;;;;;;;6.30;79.45;100517.66;5051210;28;20108;-79
2023/12/12 03:11:29;;;;;;;77.68;45.78;;;;;;;6.40;80.04;100513.44;5050425;28;20047;-79
2023/12/12 03:13:55;;;;;;;75.22;43.22;;;;;;;6.49;80.72;100515.50;5050234;28;20067;-78
2023/12/12 03:16:21;;;;;;;81.97;48.92;;;;;;;6.54;80.88;100516.03;5050337;28;20109;-79
2023/12/12 03:18:46;;;;;;;75.53;45.85;;;;;;;6.70;80.75;100529.22;5050410;28;20459;-80
2023/12/12 03:21:12;;;;;;;80.28;46.78;;;;;;;6.84;81.02;100515.81;5050552;28;20029;-80
2023/12/12 03:23:37;;;;;;;87.43;46.47;;;;;;;6.87;81.26;100512.06;5050510;28;20029;-81
2023/12/12 03:26:08;;;;;;;81.72;47.45;;;;;;;7.01;80.58;100514.66;5056100;28;20071;-80
2023/12/12 03:28:34;;;;;;;80.38;48.13;;;;;;;7.13;80.66;100521.81;5064585;28;20036;-79
2023/12/12 03:31:01;;;;;;;73.55;44.53;;;;;;;7.19;80.26;100517.88;5053270;28;20056;-80
2023/12/12 03:33:27;;;;;;;79.43;43.28;;;;;;;7.17;79.83;100509.09;5049861;28;20052;-80
2023/12/12 03:35:52;;;;;;;80.78;46.45;;;;;;;7.13;78.87;100519.16;5050149;28;20087;-79
2023/12/12 03:38:18;;;;;;;79.65;46.30;;;;;;;6.94;78.38;100516.88;5050082;28;20037;-80
2023/12/12 03:40:43;;;;;;;92.00;47.30;;;;;;;6.91;78.73;100521.59;5049735;28;20754;-79
2023/12/12 03:43:09;;;;;;;89.80;53.30;;;;;;;6.99;78.56;100544.19;5049735;28;20039;-79
2023/12/12 03:45:34;;;;;;;100.53;60.40;;;;;;;7.04;78.63;100546.53;5049566;28;20067;-81
2023/12/12 03:48:00;;;;;;;99.47;59.63;;;;;;;7.04;77.75;100541.19;5049557;28;20040;-79
2023/12/12 03:50:25;;;;;;;127.50;72.80;;;;;;;6.92;78.07;100531.31;5049759;28;20420;-81
2023/12/12 03:52:51;;;;;;;140.95;81.95;;;;;;;6.91;77.26;100541.16;5048976;28;20159;-79
2023/12/12 03:55:16;;;;;;;153.63;87.07;;;;;;;6.88;77.58;100545.88;5049663;28;20155;-79
2023/12/12 03:57:42;;;;;;;165.52;88.88;;;;;;;6.80;77.10;100522.31;5049642;28;20088;-79
2023/12/12 04:00:08;;;;;;;157.60;85.80;;;;;;;6.82;77.12;100551.63;5049426;28;20040;-79
2023/12/12 04:02:33;;;;;;;154.43;86.63;;;;;;;6.81;76.68;100560.59;5049739;28;20025;-80
2023/12/12 04:04:59;;;;;;;146.73;84.07;;;;;;;6.83;76.86;100545.31;5049679;28;20025;-79
2023/12/12 04:07:24;;;;;;;146.00;82.75;;;;;;;6.84;77.25;100541.69;5049272;28;20025;-80
2023/12/12 04:09:50;;;;;;;139.93;79.18;;;;;;;6.88;76.75;100551.22;5049560;28;20032;-79
2023/12/12 04:12:15;;;;;;;152.63;86.03;;;;;;;6.82;76.46;100540.94;5050092;28;20039;-79
2023/12/12 04:14:41;;;;;;;159.55;86.80;;;;;;;6.85;76.07;100554.09;5049667;28;20040;-78
2023/12/12 04:17:07;;;;;;;154.18;86.78;;;;;;;6.83;76.74;100542.63;5066637;28;20157;-79
2023/12/12 04:19:32;;;;;;;168.32;88.80;;;;;;;6.88;77.06;100543.19;5071498;28;20104;-81
2023/12/12 04:21:59;;;;;;;161.32;87.43;;;;;;;6.89;76.84;100544.88;5053259;28;20104;-81
2023/12/12 04:24:25;;;;;;;152.52;81.32;;;;;;;6.83;76.49;100515.91;5051396;28;20147;-79
2023/12/12 04:26:50;;;;;;;150.00;81.45;;;;;;;6.99;76.61;100533.47;5050466;28;20529;-79
2023/12/12 04:29:16;;;;;;;146.55;78.40;;;;;;;7.02;75.97;100521.72;5049651;28;20085;-80
2023/12/12 04:31:41;;;;;;;156.68;83.65;;;;;;;7.07;76.46;100530.28;5047702;28;20124;-82
2023/12/12 04:34:07;;;;;;;150.30;80.68;;;;;;;7.02;76.02;100554.66;5049097;28;20063;-79
2023/12/12 04:36:33;;;;;;;142.93;78.60;;;;;;;6.84;76.03;100539.00;5048727;28;20546;-80
2023/12/12 04:38:58;;;;;;;162.32;85.50;;;;;;;6.79;76.18;100552.66;5048736;28;20024;-81
2023/12/12 04:41:24;;;;;;;174.07;90.07;;;;;;;6.75;76.11;100563.69;5048518;28;20040;-80
2023/12/12 04:43:50;;;;;;;175.05;96.63;;;;;;;6.77;76.31;100575.13;5048986;28;20025;-80
2023/12/12 04:46:19;;;;;;;178.90;92.72;;;;;;;6.62;76.63;100577.00;5048721;28;20146;-80
2023/12/12 04:48:45;;;;;;;176.68;97.68;;;;;;;6.60;77.03;100578.91;5048991;28;20514;-80
2023/12/12 04:51:11;;;;;;;178.85;89.38;;;;;;;6.37;77.44;100561.72;5048783;28;20032;-79
2023/12/12 04:53:36;;;;;;;181.77;90.82;;;;;;;6.45;77.76;100577.25;5048730;28;20056;-80
2023/12/12 04:56:02;;;;;;;182.88;88.07;;;;;;;6.52;78.25;100582.09;5048832;28;20118;-78
2023/12/12 04:58:28;;;;;;;197.05;90.57;;;;;;;6.61;77.97;100580.63;5046494;28;20076;-79
2023/12/12 05:00:53;;;;;;;206.75;92.05;;;;;;;6.67;78.33;100579.34;5049279;28;20163;-79
2023/12/12 05:03:19;;;;;;;166.82;85.32;;;;;;;6.69;78.42;100575.66;5049119;28;20505;-80
2023/12/12 05:05:45;;;;;;;156.43;81.85;;;;;;;6.70;77.81;100581.81;5049070;28;20028;-80
2023/12/12 05:08:11;;;;;;;153.38;82.53;;;;;;;6.72;77.87;100594.16;5063036;28;20590;-80
2023/12/12 05:10:37;;;;;;;129.18;74.57;;;;;;;6.65;77.58;100591.97;5071710;28;20036;-79
2023/12/12 05:13:02;;;;;;;149.90;80.93;;;;;;;6.69;77.59;100596.16;5053092;28;20029;-79
2023/12/12 05:15:28;;;;;;;165.13;78.20;;;;;;;6.69;78.18;100615.72;5045468;28;20021;-80
2023/12/12 05:17:54;;;;;;;156.32;78.13;;;;;;;6.66;77.94;100610.59;5048172;28;20563;-79
2023/12/12 05:20:20;;;;;;;140.23;75.07;;;;;;;6.67;78.18;100606.06;5047747;28;20040;-80
2023/12/12 05:22:45;;;;;;;136.13;73.63;;;;;;;6.67;78.32;100592.72;5046835;28;20025;-79
2023/12/12 05:25:11;;;;;;;142.65;71.38;;;;;;;6.71;78.03;100584.41;5048121;28;20052;-78
2023/12/12 05:27:36;;;;;;;164.93;76.03;;;;;;;6.72;77.53;100587.94;5048169;28;20028;-78
2023/12/12 05:30:02;;;;;;;172.57;78.65;;;;;;;6.69;77.59;100578.31;5047706;28;20025;-78
2023/12/12 05:32:28;;;;;;;170.32;78.95;;;;;;;6.79;77.63;100578.56;5047187;28;20063;-76
2023/12/12 05:34:53;;;;;;;171.60;72.63;;;;;;;6.82;77.75;100567.66;5047088;28;20041;-79
2023/12/12 05:37:19;;;;;;;159.07;72.85;;;;;;;6.85;77.71;100567.47;5048030;28;20021;-78
2023/12/12 05:39:46;;;;;;;134.00;74.22;;;;;;;6.78;77.91;100559.00;5029950;28;20041;-79
2023/12/12 05:42:11;;;;;;;130.20;70.60;;;;;;;6.92;77.85;100579.44;5048861;28;20892;-80
2023/12/12 05:44:38;;;;;;;166.50;78.63;;;;;;;6.87;77.59;100544.16;5048667;28;20029;-79
2023/12/12 06:21:00;;;;;;;139.45;65.93;;;;;;;6.78;79.04;100620.47;5031864;28;20075;-77
2023/12/12 06:23:25;;;;;;;139.52;65.00;;;;;;;6.74;78.75;100608.25;5031833;28;20072;-79
2023/12/12 06:25:51;;;;;;;148.93;62.20;;;;;;;6.78;78.42;100622.28;5032002;28;20069;-81
2023/12/12 06:28:16;;;;;;;136.70;67.38;;;;;;;6.78;78.49;100616.94;5029871;28;20030;-80
2023/12/12 06:30:42;;;;;;;159.93;70.45;;;;;;;6.81;78.85;100609.56;5031621;28;20464;-79
2023/12/12 06:33:08;;;;;;;211.07;67.97;;;;;;;6.99;78.37;100620.84;5031278;28;20701;-78
2023/12/12 06:35:34;;;;;;;206.15;74.35;;;;;;;7.09;78.25;100619.28;5031672;28;20029;-80
2023/12/12 06:37:59;;;;;;;158.50;69.38;;;;;;;7.21;78.00;100610.44;5031253;28;20079;-80
2023/12/12 06:40:25;;;;;;;179.05;71.53;;;;;;;7.36;77.83;100608.53;5030762;28;20408;-80
2023/12/12 06:42:50;;;;;;;160.07;70.70;;;;;;;7.43;77.36;100607.16;5032142;28;20041;-78
2023/12/12 06:45:16;;;;;;;143.15;70.68;;;;;;;7.50;76.70;100587.03;5031357;28;20048;-79
2023/12/12 06:47:41;;;;;;;173.65;70.43;;;;;;;7.63;76.75;100582.53;5038195;28;20073;-81
2023/12/12 06:50:08;;;;;;;144.63;66.95;;;;;;;7.66;76.26;100585.84;5046469;28;20037;-79
2023/12/12 06:52:34;;;;;;;152.45;63.17;;;;;;;7.83;75.69;100599.88;5037560;28;20045;-78
2023/12/12 06:54:59;;;;;;;101.97;56.40;;;;;;;7.92;75.10;100596.56;5031075;28;20478;-79
2023/12/12 06:57:25;;;;;;;130.80;59.53;;;;;;;8.00;74.91;100592.38;5031126;28;20034;-79
2023/12/12 06:59:52;;;;;;;175.05;60.45;;;;;;;7.96;74.42;100579.28;5045096;28;20041;-81
2023/12/12 07:02:17;;;;;;;128.35;62.15;;;;;;;8.09;74.65;100590.84;5031095;28;20503;-77
2023/12/12 07:04:43;;;;;;;177.80;67.47;;;;;;;8.20;74.07;100598.97;5029886;28;20037;-80
2023/12/12 07:07:09;;;;;;;162.98;62.78;;;;;;;8.21;73.71;100573.88;5031039;28;20051;-82
2023/12/12 07:09:35;;;;;;;126.15;62.53;;;;;;;8.31;73.17;100585.69;5030733;28;20026;-79
2023/12/12 07:12:01;;;;;;;164.63;66.85;;;;;;;8.32;73.02;100568.63;5030323;28;20068;-80
2023/12/12 07:14:26;;;;;;;151.23;67.43;;;;;;;8.43;72.85;100590.16;5030831;28;20116;-79
2023/12/12 07:16:52;;;;;;;134.50;58.28;;;;;;;8.51;72.37;100595.81;5030937;28;20025;-80
2023/12/12 07:19:17;;;;;;;128.80;51.25;;;;;;;8.57;72.14;100587.31;5030753;28;20042;-79
2023/12/12 07:21:43;;;;;;;166.82;58.80;;;;;;;8.66;71.74;100591.13;5030341;28;20026;-80
2023/12/12 07:24:10;;;;;;;100.63;52.20;;;;;;;8.48;70.95;100561.19;5030353;28;20033;-80
2023/12/12 07:26:36;;;;;;;114.28;50.97;;;;;;;8.66;71.14;100586.63;5030108;28;20467;-80
2023/12/12 07:29:02;;;;;;;101.90;50.40;;;;;;;8.70;70.84;100593.47;5030380;28;20036;-81
2023/12/12 07:31:27;;;;;;;127.68;55.47;;;;;;;8.65;70.76;100597.47;5030688;28;20029;-79
2023/12/12 07:33:53;;;;;;;132.20;60.05;;;;;;;8.56;70.75;100564.13;5030420;28;20033;-80
2023/12/12 07:36:18;;;;;;;111.13;53.70;;;;;;;8.77;70.47;100584.97;5030656;28;20393;-80
2023/12/12 07:38:44;;;;;;;93.07;47.53;;;;;;;8.80;69.75;100588.28;5021295;28;20042;-80
2023/12/12 07:41:10;;;;;;;76.93;43.45;;;;;;;8.85;69.76;100580.75;5044896;28;21111;-80
2023/12/12 07:43:36;;;;;;;106.75;53.33;;;;;;;8.74;69.33;100564.63;5032111;28;20025;-80
2023/12/12 07:46:02;;;;;;;99.57;46.42;;;;;;;8.88;69.38;100595.75;5030316;28;20034;-80
2023/12/12 07:48:27;;;;;;;91.47;49.17;;;;;;;8.74;69.54;100584.22;5029971;28;20120;-80
2023/12/12 07:50:53;;;;;;;101.03;48.95;;;;;;;8.91;69.85;100595.53;5029791;28;20481;-79
2023/12/12 07:53:19;;;;;;;107.13;47.42;;;;;;;9.01;69.44;100591.19;5029840;28;20493;-79
2023/12/12 07:55:44;;;;;;;107.13;49.65;;;;;;;8.97;69.22;100601.28;5029559;28;20061;-79
2023/12/12 07:58:10;;;;;;;112.35;48.22;;;;;;;8.92;68.95;100586.50;5029637;28;20057;-79
2023/12/12 08:00:35;;;;;;;82.05;46.35;;;;;;;9.04;69.55;100607.06;5029580;28;20041;-80
2023/12/12 08:03:01;;;;;;;92.05;49.63;;;;;;;8.89;69.38;100576.88;5029851;28;20086;-79
2023/12/12 08:05:27;;;;;;;102.22;50.08;;;;;;;8.93;69.25;100581.03;5029356;28;20069;-79
2023/12/12 08:07:52;;;;;;;89.18;49.55;;;;;;;9.16;69.57;100611.50;5029687;28;20057;-79
2023/12/12 08:10:18;;;;;;;98.20;50.15;;;;;;;9.26;69.17;100601.78;5028559;28;20413;-80
2023/12/12 08:12:43;;;;;;;100.13;52.17;;;;;;;9.33;68.79;100603.00;5029713;28;20076;-79
2023/12/12 08:15:09;;;;;;;92.55;53.17;;;;;;;9.33;68.81;100594.94;5044853;28;20108;-79
2023/12/12 08:17:35;;;;;;;139.15;60.42;;;;;;;9.23;68.85;100596.66;5029692;28;20025;-79
2023/12/12 08:20:00;;;;;;;114.22;52.25;;;;;;;9.32;68.58;100587.03;5029811;28;20034;-79
2023/12/12 08:22:26;;;;;;;108.20;53.42;;;;;;;9.20;68.28;100575.41;5029298;28;20063;-80
2023/12/12 08:24:54;;;;;;;95.57;51.20;;;;;;;9.36;68.46;100592.03;5029127;28;20056;-80
2023/12/12 08:27:20;;;;;;;110.03;52.88;;;;;;;9.35;68.31;100571.56;5044734;28;20025;-80
2023/12/12 08:29:47;;;;;;;112.63;52.10;;;;;;;9.44;68.48;100578.88;5039844;28;20521;-79
2023/12/12 08:32:13;;;;;;;128.60;51.78;;;;;;;9.46;68.23;100576.94;5043313;28;20044;-81
2023/12/12 08:34:38;;;;;;;102.18;47.72;;;;;;;9.46;68.02;100579.63;5029294;28;20029;-79
2023/12/12 08:37:04;;;;;;;106.68;50.45;;;;;;;9.52;67.67;100573.78;5028899;28;20109;-78
2023/12/12 08:39:32;;;;;;;116.00;49.00;;;;;;;9.58;68.07;100575.97;5028993;28;20029;-79
2023/12/12 08:41:58;;;;;;;102.00;47.55;;;;;;;9.38;67.87;100539.09;5029381;28;20033;-80
2023/12/12 08:44:24;;;;;;;110.20;49.75;;;;;;;9.56;67.48;100551.09;5028978;28;20041;-79
2023/12/12 08:46:50;;;;;;;103.35;51.78;;;;;;;9.74;67.38;100573.81;5028741;28;20508;-80
2023/12/12 08:49:18;;;;;;;123.70;52.33;;;;;;;9.81;67.44;100572.31;5028745;28;20029;-80
2023/12/12 08:51:44;;;;;;;106.05;51.60;;;;;;;9.80;67.25;100554.53;5028653;28;20067;-80
2023/12/12 08:54:10;;;;;;;127.32;54.72;;;;;;;9.60;67.39;100492.63;5028482;28;20057;-79
2023/12/12 08:56:38;;;;;;;115.97;53.47;;;;;;;9.97;67.32;100528.97;5028744;28;20033;-80
2023/12/12 08:59:04;;;;;;;130.10;53.20;;;;;;;10.10;66.93;100536.91;5029236;28;20124;-79
2023/12/12 09:01:30;;;;;;;131.48;55.50;;;;;;;10.17;67.18;100541.72;5028637;28;20112;-79
2023/12/12 09:03:56;;;;;;;125.07;51.13;;;;;;;10.29;66.89;100542.53;5028835;28;20088;-80
2023/12/12 09:06:22;;;;;;;131.07;54.55;;;;;;;10.33;66.42;100555.63;5028581;28;20057;-79
2023/12/12 09:08:48;;;;;;;116.95;53.40;;;;;;;10.31;66.01;100537.88;5028311;28;20072;-80
2023/12/12 09:11:13;;;;;;;159.52;56.92;;;;;;;10.45;66.17;100548.38;5028673;28;20025;-80
2023/12/12 09:13:43;;;;;;;107.35;55.47;;;;;;;10.45;66.01;100529.56;5027406;28;20501;-80
2023/12/12 09:16:09;;;;;;;144.20;56.00;;;;;;;10.56;65.78;100537.59;5028702;28;20025;-79
2023/12/12 09:18:34;;;;;;;107.18;50.22;;;;;;;10.47;65.12;100543.72;5033602;28;20021;-79
2023/12/12 09:21:00;;;;;;;114.32;51.13;;;;;;;10.51;64.81;100550.56;5041761;28;20052;-80
2023/12/12 09:23:30;;;;;;;107.85;49.70;;;;;;;10.41;65.04;100538.84;5033869;28;20424;-79
2023/12/12 09:25:55;;;;;;;111.13;51.60;;;;;;;10.57;64.91;100554.56;5028468;28;20053;-79
2023/12/12 09:28:22;;;;;;;128.38;52.13;;;;;;;10.61;65.33;100562.25;5028414;28;20025;-79
2023/12/12 09:30:47;;;;;;;109.75;49.50;;;;;;;10.57;64.54;100568.03;5028277;28;20120;-80
2023/12/12 09:33:13;;;;;;;100.95;50.92;;;;;;;10.62;64.97;100563.97;5028215;28;20109;-79
2023/12/12 09:35:39;;;;;;;84.88;43.55;;;;;;;10.53;63.95;100559.34;5028093;28;20448;-78
2023/12/12 09:38:05;;;;;;;96.00;45.20;;;;;;;10.47;64.71;100559.84;5027702;28;20060;-79
2023/12/12 09:40:30;;;;;;;91.03;45.67;;;;;;;10.52;65.19;100557.63;5028338;28;20028;-80
2023/12/12 09:42:57;;;;;;;115.13;45.72;;;;;;;10.56;64.46;100559.09;5028122;28;20401;-80
2023/12/12 09:45:25;;;;;;;105.00;46.58;;;;;;;10.53;64.86;100543.22;5027736;28;20501;-80
2023/12/12 09:47:51;;;;;;;89.90;41.53;;;;;;;10.36;64.85;100525.81;5027955;28;20026;-80
2023/12/12 09:50:16;;;;;;;93.15;38.42;;;;;;;10.39;64.67;100532.75;5028050;28;20029;-79
2023/12/12 09:52:45;;;;;;;105.85;39.50;;;;;;;10.47;64.33;100550.94;5027801;28;20456;-79
2023/12/12 09:55:13;;;;;;;76.10;37.55;;;;;;;10.50;63.93;100548.84;5026433;28;20116;-79
2023/12/12 09:57:38;;;;;;;104.82;38.50;;;;;;;10.41;63.51;100548.75;5028124;28;20029;-79
2023/12/12 10:00:05;;;;;;;100.95;40.95;;;;;;;10.17;63.59;100519.34;5028161;28;20040;-79
2023/12/12 10:02:35;;;;;;;63.28;34.13;;;;;;;10.19;63.88;100517.38;5028597;28;21014;-80
2023/12/12 10:05:04;;;;;;;71.40;36.58;;;;;;;10.12;63.58;100527.75;5027852;28;20036;-79
2023/12/12 10:07:31;;;;;;;84.32;38.70;;;;;;;10.10;63.78;100520.78;5028392;28;20482;-79
2023/12/12 10:09:57;;;;;;;93.38;38.72;;;;;;;10.17;64.34;100527.41;5041872;28;20121;-79
2023/12/12 10:12:22;;;;;;;74.60;35.90;;;;;;;10.28;64.44;100548.88;5041107;28;20018;-79
2023/12/12 10:14:48;;;;;;;70.25;37.30;;;;;;;10.18;64.19;100527.28;5028674;28;20085;-80
2023/12/12 10:17:14;;;;;;;61.55;35.92;;;;;;;10.28;64.56;100532.75;5028085;28;20022;-80
2023/12/12 10:19:41;;;;;;;71.93;40.15;;;;;;;10.28;64.44;100543.50;5027720;28;20511;-80
2023/12/12 10:22:08;;;;;;;81.47;38.70;;;;;;;10.15;64.29;100532.06;5026485;28;20022;-80
2023/12/12 10:24:35;;;;;;;77.13;37.85;;;;;;;10.13;64.45;100533.97;5027394;28;20482;-80
2023/12/12 10:27:01;;;;;;;67.32;36.92;;;;;;;9.75;64.90;100459.19;5027912;28;20025;-79
2023/12/12 10:29:28;;;;;;;82.60;38.13;;;;;;;10.15;64.79;100540.97;5027757;28;20038;-79
2023/12/12 10:31:54;;;;;;;64.93;35.65;;;;;;;10.20;65.17;100545.97;5027572;28;20140;-79
2023/12/12 10:34:24;;;;;;;88.20;37.47;;;;;;;10.20;65.00;100551.34;5027547;28;20048;-80
2023/12/12 10:36:50;;;;;;;73.85;40.00;;;;;;;10.28;65.11;100551.56;5027907;28;20175;-79
2023/12/12 10:39:16;;;;;;;77.55;40.33;;;;;;;10.34;64.64;100557.31;5028984;28;20108;-80
2023/12/12 10:41:57;;;;;;;66.50;39.17;;;;;;;10.30;64.70;100546.94;5031048;28;20025;-78
2023/12/12 10:44:32;;;;;;;72.47;36.80;;;;;;;10.13;64.24;100524.13;5031332;28;20026;-80
2023/12/12 10:47:03;;;;;;;74.88;38.08;;;;;;;10.26;64.12;100551.72;5031081;28;20044;-79
2023/12/12 10:49:31;;;;;;;73.80;38.53;;;;;;;10.31;64.47;100548.63;5031471;28;20064;-79
2023/12/12 10:52:01;;;;;;;86.43;41.47;;;;;;;10.24;64.27;100545.59;5031134;28;20418;-79
2023/12/12 10:54:31;;;;;;;83.65;42.83;;;;;;;10.16;64.42;100544.50;5028946;28;20124;-80
2023/12/12 10:56:58;;;;;;;90.72;42.72;;;;;;;10.12;64.85;100518.84;5031457;28;20095;-80
2023/12/12 10:59:25;;;;;;;155.27;48.30;;;;;;;10.16;64.63;100514.94;5030846;28;20401;-80
2023/12/12 11:01:52;;;;;;;128.88;45.10;;;;;;;10.26;64.65;100521.28;5050877;28;20038;-81
2023/12/12 11:04:18;;;;;;;91.18;42.35;;;;;;;10.43;64.47;100542.25;5039122;28;20032;-80
2023/12/12 11:06:45;;;;;;;79.65;38.28;;;;;;;10.43;63.94;100519.91;5038948;28;20021;-79
2023/12/12 11:09:11;;;;;;;73.18;36.55;;;;;;;10.54;63.91;100542.25;5030905;28;20041;-80
2023/12/12 11:11:49;;;;;;;67.78;37.78;;;;;;;10.40;63.81;100518.31;5030466;28;20033;-80
2023/12/12 11:14:17;;;;;;;84.90;38.60;;;;;;;10.51;63.60;100550.56;5030632;28;20037;-79
2023/12/12 11:16:48;;;;;;;71.07;35.95;;;;;;;10.53;63.82;100543.22;5030513;28;20021;-79
2023/12/12 11:19:16;;;;;;;73.05;33.65;;;;;;;10.48;63.40;100520.38;5044609;28;20155;-80
2023/12/12 11:21:47;;;;;;;76.05;34.38;;;;;;;10.63;63.54;100533.41;5030674;28;20096;-80
2023/12/12 11:24:14;;;;;;;80.60;34.15;;;;;;;10.60;63.04;100522.91;5030357;28;20033;-80
2023/12/12 11:26:44;;;;;;;67.03;32.33;;;;;;;10.65;62.74;100531.44;5029506;28;20053;-79
2023/12/12 11:29:14;;;;;;;57.78;28.05;;;;;;;10.71;62.83;100535.44;5030532;28;20783;-80
2023/12/12 11:32:02;;;;;;;83.82;31.67;;;;;;;10.75;62.40;100532.41;5029203;28;20048;-80
2023/12/12 11:34:38;;;;;;;49.92;27.70;;;;;;;10.68;62.07;100528.50;5029508;28;20033;-79
2023/12/12 11:37:04;;;;;;;47.97;26.23;;;;;;;10.63;61.88;100519.09;5030500;28;20515;-80
2023/12/12 11:39:49;;;;;;;72.60;29.42;;;;;;;10.66;61.84;100517.03;5028158;28;20180;-79
2023/12/12 11:42:23;;;;;;;51.60;27.92;;;;;;;10.75;61.94;100532.41;5031014;28;20117;-81